Wetterdaten: Woche 02.07.12 - 08.07.12 (KW27)
Datum Zeit Temp. Innen Temp. Aussen UV X Diff Temp. Feuchte Inne Feuchte Auss Sonnenschein Luftdruck Regen ab 0,1 Wind Sonnenschein T Regendauer Windben
02.07.2012 00:00 22,6 C 14,0 C 0,0 UV-I 0,0 C 44 % 70 % 0 % 1020,1 hPa 0,0 l/m 0,1 km/h (0 Bft) 0,00 h 0,00 h 0,3 km/h (0 Bft)
02.07.2012 01:00 22,3 C 13,1 C 0,0 UV-I 0,0 C 46 % 73 % 0 % 1020,0 hPa 0,0 l/m 0,0 km/h (0 Bft) 0,00 h 0,00 h 0,0 km/h (0 Bft)
02.07.2012 02:00 22,0 C 12,0 C 0,0 UV-I 0,0 C 47 % 78 % 0 % 1020,0 hPa 0,0 l/m 0,0 km/h (0 Bft) 0,00 h 0,00 h 0,0 km/h (0 Bft)
02.07.2012 03:00 21,7 C 11,1 C 0,0 UV-I 0,0 C 48 % 82 % 0 % 1020,2 hPa 0,0 l/m 0,0 km/h (0 Bft) 0,00 h 0,00 h 0,0 km/h (0 Bft)
02.07.2012 04:00 21,3 C 10,4 C 0,0 UV-I 0,0 C 49 % 85 % 0 % 1020,3 hPa 0,0 l/m 0,0 km/h (0 Bft) 0,00 h 0,00 h 0,3 km/h (0 Bft)
02.07.2012 05:00 21,2 C 10,4 C 0,0 UV-I 0,0 C 50 % 87 % 0 % 1020,4 hPa 0,0 l/m 0,2 km/h (0 Bft) 0,00 h 0,00 h 1,6 km/h (1 Bft)
02.07.2012 06:00 21,0 C 10,6 C 0,0 UV-I 0,0 C 50 % 88 % 0 % 1020,4 hPa 0,0 l/m 1,2 km/h (1 Bft) 0,00 h 0,00 h 3,4 km/h (1 Bft)
02.07.2012 07:00 21,1 C 12,3 C 0,1 UV-I 1,1 C 51 % 88 % 31 % 1020,5 hPa 0,0 l/m 1,0 km/h (0 Bft) 0,00 h 0,00 h 2,2 km/h (1 Bft)
02.07.2012 08:00 21,4 C 14,0 C 0,9 UV-I 4,4 C 52 % 86 % 85 % 1020,7 hPa 0,0 l/m 1,1 km/h (0 Bft) 0,70 h 0,00 h 3,3 km/h (1 Bft)
02.07.2012 09:00 21,8 C 16,6 C 1,8 UV-I 6,7 C 51 % 77 % 100 % 1020,4 hPa 0,0 l/m 0,5 km/h (0 Bft) 1,00 h 0,00 h 1,3 km/h (1 Bft)
02.07.2012 10:00 22,2 C 17,9 C 1,6 UV-I 4,4 C 50 % 69 % 90 % 1020,6 hPa 0,0 l/m 1,0 km/h (0 Bft) 0,70 h 0,00 h 3,2 km/h (1 Bft)
02.07.2012 11:00 22,6 C 18,6 C 1,9 UV-I 4,2 C 49 % 65 % 97 % 1020,1 hPa 0,0 l/m 2,8 km/h (1 Bft) 0,90 h 0,00 h 6,1 km/h (2 Bft)
02.07.2012 12:00 23,0 C 19,8 C 2,4 UV-I 5,4 C 48 % 61 % 100 % 1019,6 hPa 0,0 l/m 2,3 km/h (1 Bft) 1,00 h 0,00 h 5,8 km/h (2 Bft)
02.07.2012 13:00 23,3 C 20,2 C 1,5 UV-I 3,6 C 47 % 59 % 88 % 1019,0 hPa 0,0 l/m 2,0 km/h (1 Bft) 0,67 h 0,00 h 5,1 km/h (1 Bft)
02.07.2012 14:00 23,3 C 20,3 C 1,3 UV-I 2,5 C 47 % 60 % 73 % 1018,9 hPa 0,0 l/m 4,0 km/h (1 Bft) 0,03 h 0,00 h 7,9 km/h (2 Bft)
02.07.2012 15:00 23,4 C 20,3 C 1,2 UV-I 2,1 C 48 % 60 % 60 % 1018,7 hPa 0,0 l/m 3,7 km/h (1 Bft) 0,13 h 0,00 h 7,4 km/h (2 Bft)
02.07.2012 16:00 23,8 C 20,9 C 1,6 UV-I 3,7 C 48 % 58 % 98 % 1018,0 hPa 0,0 l/m 3,1 km/h (1 Bft) 1,00 h 0,00 h 6,3 km/h (2 Bft)
02.07.2012 17:00 24,7 C 22,1 C 2,8 UV-I 4,6 C 46 % 55 % 94 % 1016,8 hPa 0,0 l/m 3,5 km/h (1 Bft) 0,83 h 0,00 h 6,7 km/h (2 Bft)
02.07.2012 18:00 25,3 C 21,8 C 1,5 UV-I 3,8 C 44 % 54 % 86 % 1016,9 hPa 0,0 l/m 2,3 km/h (1 Bft) 0,67 h 0,00 h 5,1 km/h (1 Bft)
02.07.2012 19:00 24,7 C 20,7 C 0,4 UV-I 0,2 C 45 % 58 % 6 % 1017,7 hPa 0,0 l/m 1,9 km/h (1 Bft) 0,00 h 0,00 h 3,8 km/h (1 Bft)
02.07.2012 20:00 24,1 C 20,1 C 0,1 UV-I 0,0 C 46 % 61 % 0 % 1017,7 hPa 0,0 l/m 1,3 km/h (1 Bft) 0,00 h 0,00 h 4,4 km/h (1 Bft)
02.07.2012 21:00 23,8 C 19,1 C 0,0 UV-I 0,0 C 48 % 66 % 0 % 1017,8 hPa 0,0 l/m 0,9 km/h (0 Bft) 0,00 h 0,00 h 1,8 km/h (1 Bft)
02.07.2012 22:00 23,3 C 17,4 C 0,0 UV-I 0,0 C 50 % 71 % 0 % 1018,4 hPa 0,0 l/m 0,1 km/h (0 Bft) 0,00 h 0,00 h 0,0 km/h (0 Bft)
02.07.2012 23:00 22,9 C 15,5 C 0,0 UV-I 0,0 C 52 % 77 % 0 % 1018,4 hPa 0,0 l/m 0,0 km/h (0 Bft) 0,00 h 0,00 h 0,0 km/h (0 Bft)
03.07.2012 00:00 22,5 C 14,5 C 0,0 UV-I 0,0 C 53 % 83 % 0 % 1018,3 hPa 0,0 l/m 0,4 km/h (0 Bft) 0,00 h 0,00 h 2,0 km/h (1 Bft)
03.07.2012 01:00 22,3 C 14,2 C 0,0 UV-I 0,0 C 54 % 85 % 0 % 1018,2 hPa 0,0 l/m 0,9 km/h (0 Bft) 0,00 h 0,00 h 2,7 km/h (1 Bft)
03.07.2012 02:00 22,0 C 13,8 C 0,0 UV-I 0,0 C 55 % 88 % 0 % 1018,1 hPa 0,0 l/m 0,8 km/h (0 Bft) 0,00 h 0,00 h 2,4 km/h (1 Bft)
03.07.2012 03:00 21,8 C 13,4 C 0,0 UV-I 0,0 C 56 % 90 % 0 % 1017,9 hPa 0,0 l/m 1,7 km/h (1 Bft) 0,00 h 0,00 h 3,6 km/h (1 Bft)
03.07.2012 04:00 21,6 C 13,2 C 0,0 UV-I 0,0 C 57 % 92 % 0 % 1017,8 hPa 0,0 l/m 0,7 km/h (0 Bft) 0,00 h 0,03 h 2,2 km/h (1 Bft)
03.07.2012 05:00 21,4 C 12,8 C 0,0 UV-I 0,0 C 57 % 92 % 0 % 1017,5 hPa 0,0 l/m 2,8 km/h (1 Bft) 0,00 h 0,00 h 5,3 km/h (1 Bft)
03.07.2012 06:00 21,3 C 13,0 C 0,0 UV-I 0,0 C 58 % 94 % 0 % 1017,6 hPa 0,0 l/m 1,9 km/h (1 Bft) 0,00 h 0,00 h 4,7 km/h (1 Bft)
03.07.2012 07:00 21,5 C 13,9 C 0,1 UV-I 0,8 C 58 % 94 % 24 % 1017,8 hPa 0,0 l/m 1,9 km/h (1 Bft) 0,00 h 0,00 h 5,2 km/h (1 Bft)
03.07.2012 08:00 21,8 C 15,5 C 0,3 UV-I 1,8 C 58 % 93 % 51 % 1017,9 hPa 0,0 l/m 1,2 km/h (1 Bft) 0,00 h 0,00 h 4,5 km/h (1 Bft)
03.07.2012 09:00 22,1 C 17,1 C 1,2 UV-I 2,9 C 58 % 90 % 78 % 1018,0 hPa 0,0 l/m 3,0 km/h (1 Bft) 0,53 h 0,00 h 7,1 km/h (2 Bft)
03.07.2012 10:00 22,5 C 20,5 C 4,3 UV-I 7,5 C 57 % 79 % 100 % 1017,8 hPa 0,0 l/m 3,6 km/h (1 Bft) 1,00 h 0,00 h 7,8 km/h (2 Bft)
03.07.2012 11:00 22,8 C 23,0 C 3,5 UV-I 7,6 C 56 % 64 % 100 % 1017,6 hPa 0,0 l/m 3,5 km/h (1 Bft) 1,00 h 0,00 h 7,7 km/h (2 Bft)
03.07.2012 12:00 23,2 C 24,0 C 1,9 UV-I 5,0 C 55 % 56 % 99 % 1017,2 hPa 0,0 l/m 2,0 km/h (1 Bft) 1,00 h 0,00 h 4,1 km/h (1 Bft)
03.07.2012 13:00 23,5 C 23,6 C 1,1 UV-I 2,2 C 53 % 57 % 64 % 1016,9 hPa 0,0 l/m 1,2 km/h (1 Bft) 0,10 h 0,00 h 3,3 km/h (1 Bft)
03.07.2012 14:00 23,9 C 24,7 C 2,1 UV-I 4,5 C 53 % 56 % 99 % 1016,5 hPa 0,0 l/m 2,6 km/h (1 Bft) 1,00 h 0,00 h 6,0 km/h (2 Bft)
03.07.2012 15:00 24,6 C 25,1 C 2,1 UV-I 4,5 C 53 % 54 % 96 % 1016,2 hPa 0,0 l/m 2,3 km/h (1 Bft) 1,00 h 0,00 h 5,1 km/h (1 Bft)
03.07.2012 16:00 25,5 C 25,8 C 2,2 UV-I 5,3 C 51 % 51 % 100 % 1015,7 hPa 0,0 l/m 2,4 km/h (1 Bft) 1,00 h 0,00 h 5,3 km/h (1 Bft)
03.07.2012 17:00 25,4 C 24,6 C 0,3 UV-I 1,1 C 50 % 55 % 33 % 1015,6 hPa 0,0 l/m 0,6 km/h (0 Bft) 0,00 h 0,00 h 1,6 km/h (1 Bft)
03.07.2012 18:00 24,9 C 23,8 C 0,0 UV-I 0,2 C 51 % 59 % 5 % 1015,6 hPa 0,0 l/m 0,1 km/h (0 Bft) 0,00 h 0,00 h 0,0 km/h (0 Bft)
03.07.2012 19:00 24,6 C 23,8 C 0,2 UV-I 0,8 C 52 % 60 % 24 % 1015,3 hPa 0,0 l/m 0,0 km/h (0 Bft) 0,00 h 0,20 h 0,0 km/h (0 Bft)
03.07.2012 20:00 24,4 C 23,6 C 0,0 UV-I 0,1 C 54 % 62 % 3 % 1015,5 hPa 0,0 l/m 0,0 km/h (0 Bft) 0,00 h 0,00 h 0,0 km/h (0 Bft)
03.07.2012 21:00 24,3 C 22,6 C 0,0 UV-I 0,0 C 56 % 65 % 0 % 1015,6 hPa 0,0 l/m 0,0 km/h (0 Bft) 0,00 h 0,00 h 0,0 km/h (0 Bft)
03.07.2012 22:00 24,1 C 21,5 C 0,0 UV-I 0,0 C 58 % 71 % 0 % 1016,0 hPa 0,0 l/m 0,0 km/h (0 Bft) 0,00 h 0,00 h 0,0 km/h (0 Bft)
03.07.2012 23:00 24,0 C 20,6 C 0,0 UV-I 0,0 C 60 % 77 % 0 % 1016,0 hPa 0,0 l/m 0,0 km/h (0 Bft) 0,00 h 0,00 h 0,0 km/h (0 Bft)
04.07.2012 00:00 23,8 C 19,9 C 0,0 UV-I 0,0 C 61 % 80 % 0 % 1015,7 hPa 0,0 l/m 0,0 km/h (0 Bft) 0,00 h 0,00 h 0,0 km/h (0 Bft)
04.07.2012 01:00 23,7 C 19,5 C 0,0 UV-I 0,0 C 61 % 81 % 0 % 1015,3 hPa 0,0 l/m 0,0 km/h (0 Bft) 0,00 h 0,00 h 0,0 km/h (0 Bft)
04.07.2012 02:00 23,6 C 18,5 C 0,0 UV-I 0,0 C 62 % 84 % 0 % 1015,0 hPa 0,0 l/m 0,0 km/h (0 Bft) 0,00 h 0,00 h 0,0 km/h (0 Bft)
04.07.2012 03:00 23,4 C 17,5 C 0,0 UV-I 0,0 C 62 % 87 % 0 % 1014,8 hPa 0,0 l/m 0,0 km/h (0 Bft) 0,00 h 0,00 h 0,0 km/h (0 Bft)
04.07.2012 04:00 23,2 C 16,5 C 0,0 UV-I 0,0 C 62 % 89 % 0 % 1014,3 hPa 0,0 l/m 0,0 km/h (0 Bft) 0,00 h 0,00 h 0,0 km/h (0 Bft)
04.07.2012 05:00 23,0 C 15,8 C 0,0 UV-I 0,0 C 62 % 91 % 0 % 1014,2 hPa 0,0 l/m 0,0 km/h (0 Bft) 0,00 h 0,03 h 0,0 km/h (0 Bft)
04.07.2012 06:00 22,8 C 15,6 C 0,0 UV-I 0,0 C 62 % 92 % 1 % 1013,9 hPa 0,0 l/m 0,0 km/h (0 Bft) 0,00 h 0,00 h 0,0 km/h (0 Bft)
04.07.2012 07:00 22,9 C 17,1 C 0,3 UV-I 1,0 C 63 % 93 % 28 % 1013,9 hPa 0,0 l/m 0,2 km/h (0 Bft) 0,00 h 0,00 h 1,1 km/h (1 Bft)
04.07.2012 08:00 23,2 C 19,3 C 0,9 UV-I 3,8 C 62 % 89 % 85 % 1013,9 hPa 0,0 l/m 1,8 km/h (1 Bft) 0,77 h 0,00 h 5,7 km/h (1 Bft)
04.07.2012 09:00 23,4 C 21,5 C 2,5 UV-I 6,1 C 62 % 80 % 100 % 1013,7 hPa 0,0 l/m 2,4 km/h (1 Bft) 1,00 h 0,00 h 6,2 km/h (2 Bft)
04.07.2012 10:00 23,6 C 23,4 C 3,7 UV-I 6,6 C 61 % 72 % 100 % 1013,5 hPa 0,0 l/m 2,5 km/h (1 Bft) 1,00 h 0,00 h 5,8 km/h (2 Bft)
04.07.2012 11:00 23,9 C 25,2 C 3,0 UV-I 6,0 C 61 % 64 % 100 % 1013,3 hPa 0,0 l/m 2,7 km/h (1 Bft) 1,00 h 0,00 h 7,1 km/h (2 Bft)
04.07.2012 12:00 24,3 C 26,2 C 2,7 UV-I 5,3 C 59 % 57 % 100 % 1012,9 hPa 0,0 l/m 4,2 km/h (1 Bft) 1,00 h 0,00 h 8,8 km/h (2 Bft)
04.07.2012 13:00 24,7 C 27,0 C 2,8 UV-I 5,2 C 57 % 53 % 100 % 1012,6 hPa 0,0 l/m 5,3 km/h (1 Bft) 1,00 h 0,00 h 9,7 km/h (2 Bft)
04.07.2012 14:00 25,3 C 27,9 C 2,7 UV-I 4,6 C 55 % 49 % 100 % 1012,1 hPa 0,0 l/m 4,9 km/h (1 Bft) 1,00 h 0,00 h 8,2 km/h (2 Bft)
04.07.2012 15:00 26,3 C 28,5 C 2,3 UV-I 4,4 C 51 % 48 % 95 % 1011,6 hPa 0,0 l/m 4,7 km/h (1 Bft) 0,90 h 0,00 h 8,8 km/h (2 Bft)
04.07.2012 16:00 26,7 C 28,1 C 1,9 UV-I 3,1 C 51 % 50 % 79 % 1010,9 hPa 0,0 l/m 3,6 km/h (1 Bft) 0,47 h 0,00 h 6,8 km/h (2 Bft)
04.07.2012 17:00 26,4 C 27,8 C 1,7 UV-I 2,7 C 52 % 51 % 70 % 1010,7 hPa 0,0 l/m 3,3 km/h (1 Bft) 0,30 h 0,00 h 6,4 km/h (2 Bft)
04.07.2012 18:00 26,8 C 27,9 C 1,3 UV-I 2,7 C 51 % 51 % 68 % 1009,4 hPa 0,0 l/m 4,9 km/h (1 Bft) 0,30 h 0,00 h 8,9 km/h (2 Bft)
04.07.2012 19:00 26,5 C 27,0 C 0,5 UV-I 0,5 C 51 % 54 % 14 % 1010,0 hPa 0,0 l/m 2,2 km/h (1 Bft) 0,00 h 0,00 h 5,1 km/h (1 Bft)
04.07.2012 20:00 26,1 C 26,5 C 0,1 UV-I 0,1 C 53 % 57 % 3 % 1010,3 hPa 0,0 l/m 0,9 km/h (0 Bft) 0,00 h 0,00 h 2,0 km/h (1 Bft)
04.07.2012 21:00 25,8 C 25,5 C 0,0 UV-I 0,0 C 54 % 59 % 0 % 1010,3 hPa 0,0 l/m 0,3 km/h (0 Bft) 0,00 h 0,00 h 1,8 km/h (1 Bft)
04.07.2012 22:00 25,4 C 23,9 C 0,0 UV-I 0,0 C 56 % 63 % 0 % 1010,6 hPa 0,0 l/m 0,0 km/h (0 Bft) 0,00 h 0,00 h 0,0 km/h (0 Bft)
04.07.2012 23:00 25,2 C 22,0 C 0,0 UV-I 0,0 C 58 % 70 % 0 % 1010,8 hPa 0,0 l/m 0,0 km/h (0 Bft) 0,00 h 0,00 h 0,0 km/h (0 Bft)
05.07.2012 00:00 25,0 C 21,5 C 0,0 UV-I 0,0 C 59 % 74 % 0 % 1010,8 hPa 0,0 l/m 0,0 km/h (0 Bft) 0,00 h 0,07 h 0,0 km/h (0 Bft)
05.07.2012 01:00 24,9 C 20,8 C 0,0 UV-I 0,0 C 60 % 81 % 0 % 1010,4 hPa 0,9 l/m 0,0 km/h (0 Bft) 0,00 h 0,17 h 0,0 km/h (0 Bft)
05.07.2012 02:00 24,7 C 19,7 C 0,0 UV-I 0,0 C 63 % 87 % 0 % 1010,1 hPa 1,0 l/m 1,4 km/h (1 Bft) 0,00 h 0,17 h 2,8 km/h (1 Bft)
05.07.2012 03:00 24,5 C 18,7 C 0,0 UV-I 0,0 C 64 % 89 % 0 % 1009,8 hPa 0,0 l/m 0,1 km/h (0 Bft) 0,00 h 0,00 h 0,0 km/h (0 Bft)
05.07.2012 04:00 24,3 C 18,0 C 0,0 UV-I 0,0 C 65 % 90 % 0 % 1010,0 hPa 0,0 l/m 0,0 km/h (0 Bft) 0,00 h 0,00 h 0,0 km/h (0 Bft)
05.07.2012 05:00 24,2 C 17,7 C 0,0 UV-I 0,0 C 64 % 92 % 0 % 1009,7 hPa 0,1 l/m 0,5 km/h (0 Bft) 0,00 h 0,00 h 2,1 km/h (1 Bft)
05.07.2012 06:00 24,0 C 17,6 C 0,0 UV-I 0,0 C 64 % 92 % 0 % 1009,4 hPa 0,0 l/m 0,1 km/h (0 Bft) 0,00 h 0,00 h 0,6 km/h (0 Bft)
05.07.2012 07:00 24,0 C 18,0 C 0,3 UV-I 0,0 C 65 % 93 % 1 % 1009,5 hPa 0,0 l/m 0,2 km/h (0 Bft) 0,00 h 0,00 h 1,7 km/h (1 Bft)
05.07.2012 08:00 24,1 C 20,0 C 1,1 UV-I 5,0 C 65 % 92 % 79 % 1009,7 hPa 0,0 l/m 4,4 km/h (1 Bft) 0,73 h 0,00 h 8,2 km/h (2 Bft)
05.07.2012 09:00 24,3 C 22,8 C 2,4 UV-I 6,2 C 65 % 85 % 100 % 1009,8 hPa 0,0 l/m 2,9 km/h (1 Bft) 1,00 h 0,00 h 6,1 km/h (2 Bft)
05.07.2012 10:00 24,7 C 25,3 C 2,9 UV-I 7,2 C 64 % 74 % 100 % 1009,7 hPa 0,0 l/m 0,7 km/h (0 Bft) 1,00 h 0,00 h 2,5 km/h (1 Bft)
05.07.2012 11:00 25,0 C 26,2 C 2,7 UV-I 6,2 C 63 % 68 % 100 % 1009,8 hPa 0,0 l/m 1,2 km/h (1 Bft) 1,00 h 0,00 h 4,1 km/h (1 Bft)
05.07.2012 12:00 25,2 C 27,6 C 2,5 UV-I 6,8 C 62 % 61 % 98 % 1009,6 hPa 0,0 l/m 2,0 km/h (1 Bft) 0,93 h 0,00 h 5,2 km/h (1 Bft)
05.07.2012 13:00 25,6 C 27,4 C 2,2 UV-I 4,3 C 61 % 62 % 93 % 1009,1 hPa 0,0 l/m 2,1 km/h (1 Bft) 0,83 h 0,00 h 6,5 km/h (2 Bft)
05.07.2012 14:00 26,0 C 27,9 C 2,3 UV-I 4,5 C 60 % 62 % 96 % 1008,8 hPa 0,0 l/m 2,2 km/h (1 Bft) 0,97 h 0,00 h 7,0 km/h (2 Bft)
05.07.2012 15:00 26,6 C 28,1 C 2,2 UV-I 4,6 C 59 % 60 % 100 % 1008,6 hPa 0,0 l/m 1,5 km/h (1 Bft) 1,00 h 0,00 h 3,9 km/h (1 Bft)
05.07.2012 16:00 26,8 C 27,0 C 2,2 UV-I 3,0 C 58 % 63 % 80 % 1008,1 hPa 0,0 l/m 8,3 km/h (2 Bft) 0,57 h 0,00 h 14,3 km/h (3 Bft)
05.07.2012 17:00 27,2 C 25,9 C 1,4 UV-I 1,6 C 57 % 65 % 45 % 1007,7 hPa 0,0 l/m 4,0 km/h (1 Bft) 0,07 h 0,00 h 7,0 km/h (2 Bft)
05.07.2012 18:00 27,0 C 26,2 C 1,0 UV-I 2,4 C 57 % 64 % 64 % 1007,4 hPa 0,0 l/m 1,6 km/h (1 Bft) 0,40 h 0,00 h 3,1 km/h (1 Bft)
05.07.2012 19:00 26,6 C 25,5 C 0,0 UV-I 0,0 C 58 % 69 % 0 % 1007,6 hPa 0,0 l/m 0,3 km/h (0 Bft) 0,00 h 0,30 h 0,4 km/h (0 Bft)
05.07.2012 20:00 26,2 C 23,8 C 0,0 UV-I 0,0 C 61 % 77 % 0 % 1007,6 hPa 0,0 l/m 0,3 km/h (0 Bft) 0,00 h 0,00 h 0,5 km/h (0 Bft)
05.07.2012 21:00 25,9 C 23,0 C 0,0 UV-I 0,0 C 63 % 81 % 0 % 1007,1 hPa 0,0 l/m 0,0 km/h (0 Bft) 0,00 h 0,00 h 0,3 km/h (0 Bft)
05.07.2012 22:00 25,7 C 22,3 C 0,0 UV-I 0,0 C 64 % 84 % 0 % 1007,3 hPa 0,0 l/m 0,0 km/h (0 Bft) 0,00 h 0,00 h 0,0 km/h (0 Bft)
05.07.2012 23:00 25,5 C 21,9 C 0,0 UV-I 0,0 C 65 % 87 % 0 % 1007,3 hPa 0,0 l/m 0,1 km/h (0 Bft) 0,00 h 0,00 h 0,0 km/h (0 Bft)
06.07.2012 00:00 25,4 C 21,8 C 0,0 UV-I 0,0 C 65 % 87 % 0 % 1006,8 hPa 0,0 l/m 0,6 km/h (0 Bft) 0,00 h 0,00 h 2,7 km/h (1 Bft)
06.07.2012 01:00 25,2 C 21,0 C 0,0 UV-I 0,0 C 66 % 88 % 0 % 1006,6 hPa 0,0 l/m 1,0 km/h (0 Bft) 0,00 h 0,00 h 3,8 km/h (1 Bft)
06.07.2012 02:00 25,0 C 20,3 C 0,0 UV-I 0,0 C 67 % 90 % 0 % 1006,4 hPa 0,0 l/m 1,8 km/h (1 Bft) 0,00 h 0,00 h 5,1 km/h (1 Bft)
06.07.2012 03:00 24,8 C 19,4 C 0,0 UV-I 0,0 C 66 % 91 % 0 % 1006,2 hPa 0,0 l/m 1,2 km/h (1 Bft) 0,00 h 0,00 h 3,1 km/h (1 Bft)
06.07.2012 04:00 24,7 C 18,9 C 0,0 UV-I 0,0 C 66 % 92 % 0 % 1006,5 hPa 0,0 l/m 0,8 km/h (0 Bft) 0,00 h 0,00 h 2,6 km/h (1 Bft)
06.07.2012 05:00 24,4 C 19,1 C 0,0 UV-I 0,0 C 64 % 90 % 0 % 1006,8 hPa 0,0 l/m 3,2 km/h (1 Bft) 0,00 h 0,00 h 7,5 km/h (2 Bft)
06.07.2012 06:00 24,3 C 19,1 C 0,0 UV-I 0,0 C 63 % 88 % 0 % 1006,9 hPa 0,0 l/m 2,4 km/h (1 Bft) 0,00 h 0,00 h 7,8 km/h (2 Bft)
06.07.2012 07:00 24,3 C 19,1 C 0,2 UV-I 0,4 C 63 % 87 % 12 % 1007,1 hPa 0,0 l/m 2,0 km/h (1 Bft) 0,00 h 0,00 h 5,3 km/h (1 Bft)
06.07.2012 08:00 24,3 C 19,7 C 0,7 UV-I 2,5 C 63 % 86 % 66 % 1007,2 hPa 0,0 l/m 3,3 km/h (1 Bft) 0,37 h 0,00 h 8,0 km/h (2 Bft)
06.07.2012 09:00 24,4 C 20,5 C 0,8 UV-I 2,1 C 62 % 83 % 61 % 1007,8 hPa 0,0 l/m 5,0 km/h (1 Bft) 0,00 h 0,00 h 10,9 km/h (2 Bft)
06.07.2012 10:00 24,5 C 20,9 C 1,2 UV-I 2,4 C 61 % 80 % 68 % 1008,4 hPa 0,0 l/m 6,5 km/h (2 Bft) 0,13 h 0,10 h 11,8 km/h (2 Bft)
06.07.2012 11:00 24,6 C 19,5 C 0,8 UV-I 0,6 C 62 % 86 % 18 % 1009,0 hPa 0,6 l/m 3,2 km/h (1 Bft) 0,00 h 0,23 h 6,4 km/h (2 Bft)
06.07.2012 12:00 24,6 C 19,7 C 1,4 UV-I 2,6 C 63 % 87 % 74 % 1009,4 hPa 0,0 l/m 5,3 km/h (1 Bft) 0,33 h 0,00 h 9,4 km/h (2 Bft)
06.07.2012 13:00 24,7 C 21,1 C 2,1 UV-I 4,2 C 60 % 79 % 99 % 1009,7 hPa 0,0 l/m 5,0 km/h (1 Bft) 1,00 h 0,00 h 9,0 km/h (2 Bft)
06.07.2012 14:00 25,2 C 22,3 C 2,5 UV-I 4,8 C 58 % 70 % 100 % 1010,1 hPa 0,0 l/m 4,5 km/h (1 Bft) 1,00 h 0,00 h 8,6 km/h (2 Bft)
06.07.2012 15:00 26,2 C 23,8 C 2,5 UV-I 5,2 C 55 % 64 % 100 % 1009,9 hPa 0,0 l/m 3,7 km/h (1 Bft) 1,00 h 0,00 h 8,0 km/h (2 Bft)
06.07.2012 16:00 27,5 C 25,0 C 2,6 UV-I 4,5 C 50 % 57 % 94 % 1009,6 hPa 0,0 l/m 3,4 km/h (1 Bft) 0,87 h 0,00 h 6,5 km/h (2 Bft)
06.07.2012 17:00 27,4 C 24,7 C 1,5 UV-I 3,0 C 48 % 56 % 76 % 1009,2 hPa 0,0 l/m 3,7 km/h (1 Bft) 0,67 h 0,00 h 7,9 km/h (2 Bft)
06.07.2012 18:00 26,8 C 24,0 C 0,7 UV-I 1,4 C 49 % 59 % 39 % 1009,5 hPa 0,0 l/m 2,5 km/h (1 Bft) 0,00 h 0,00 h 5,6 km/h (1 Bft)
06.07.2012 19:00 26,3 C 23,9 C 0,3 UV-I 0,5 C 50 % 57 % 13 % 1009,6 hPa 0,0 l/m 1,9 km/h (1 Bft) 0,00 h 0,00 h 4,8 km/h (1 Bft)
06.07.2012 20:00 25,8 C 22,3 C 0,0 UV-I 0,0 C 49 % 61 % 0 % 1010,3 hPa 0,0 l/m 1,8 km/h (1 Bft) 0,00 h 0,00 h 3,3 km/h (1 Bft)
06.07.2012 21:00 25,4 C 21,2 C 0,0 UV-I 0,0 C 51 % 66 % 0 % 1010,6 hPa 0,0 l/m 0,1 km/h (0 Bft) 0,00 h 0,00 h 0,5 km/h (0 Bft)
06.07.2012 22:00 25,1 C 19,9 C 0,0 UV-I 0,0 C 53 % 70 % 0 % 1011,2 hPa 0,0 l/m 0,0 km/h (0 Bft) 0,00 h 0,00 h 0,0 km/h (0 Bft)
06.07.2012 23:00 24,9 C 19,3 C 0,0 UV-I 0,0 C 53 % 73 % 0 % 1011,6 hPa 0,0 l/m 0,0 km/h (0 Bft) 0,00 h 0,00 h 0,0 km/h (0 Bft)
07.07.2012 00:00 24,6 C 17,9 C 0,0 UV-I 0,0 C 54 % 77 % 0 % 1011,9 hPa 0,0 l/m 0,0 km/h (0 Bft) 0,00 h 0,00 h 0,0 km/h (0 Bft)
07.07.2012 01:00 24,3 C 16,9 C 0,0 UV-I 0,0 C 55 % 81 % 0 % 1012,1 hPa 0,0 l/m 0,0 km/h (0 Bft) 0,00 h 0,00 h 0,0 km/h (0 Bft)
07.07.2012 02:00 24,1 C 16,0 C 0,0 UV-I 0,0 C 56 % 85 % 0 % 1011,9 hPa 0,0 l/m 0,0 km/h (0 Bft) 0,00 h 0,00 h 0,7 km/h (0 Bft)
07.07.2012 03:00 23,8 C 15,5 C 0,0 UV-I 0,0 C 55 % 85 % 0 % 1011,8 hPa 0,0 l/m 0,0 km/h (0 Bft) 0,00 h 0,00 h 0,0 km/h (0 Bft)
07.07.2012 04:00 23,5 C 14,9 C 0,0 UV-I 0,0 C 55 % 87 % 0 % 1012,0 hPa 0,0 l/m 0,0 km/h (0 Bft) 0,00 h 0,00 h 0,0 km/h (0 Bft)
07.07.2012 05:00 23,3 C 14,2 C 0,0 UV-I 0,0 C 55 % 88 % 0 % 1011,8 hPa 0,0 l/m 0,1 km/h (0 Bft) 0,00 h 0,00 h 1,0 km/h (0 Bft)
07.07.2012 06:00 23,1 C 14,3 C 0,0 UV-I 0,1 C 56 % 90 % 2 % 1011,9 hPa 0,0 l/m 1,5 km/h (1 Bft) 0,00 h 0,00 h 4,5 km/h (1 Bft)
07.07.2012 07:00 23,2 C 15,9 C 0,0 UV-I 0,5 C 57 % 90 % 14 % 1012,0 hPa 0,5 l/m 1,4 km/h (1 Bft) 0,00 h 0,27 h 3,1 km/h (1 Bft)
07.07.2012 08:00 23,5 C 17,3 C 0,4 UV-I 1,9 C 59 % 90 % 54 % 1012,4 hPa 0,0 l/m 0,5 km/h (0 Bft) 0,40 h 0,17 h 2,9 km/h (1 Bft)
07.07.2012 09:00 23,8 C 18,4 C 1,2 UV-I 2,3 C 60 % 88 % 54 % 1012,3 hPa 0,0 l/m 2,0 km/h (1 Bft) 0,23 h 0,00 h 4,4 km/h (1 Bft)
07.07.2012 10:00 24,0 C 20,3 C 2,9 UV-I 6,4 C 58 % 79 % 100 % 1012,2 hPa 0,0 l/m 1,4 km/h (1 Bft) 1,00 h 0,00 h 3,4 km/h (1 Bft)
07.07.2012 11:00 24,0 C 21,8 C 3,5 UV-I 6,9 C 55 % 68 % 100 % 1012,0 hPa 0,0 l/m 2,9 km/h (1 Bft) 1,00 h 0,00 h 6,8 km/h (2 Bft)
07.07.2012 12:00 24,2 C 23,2 C 2,6 UV-I 6,1 C 54 % 61 % 100 % 1011,8 hPa 0,0 l/m 4,0 km/h (1 Bft) 1,00 h 0,00 h 8,3 km/h (2 Bft)
07.07.2012 13:00 24,5 C 23,1 C 1,6 UV-I 2,7 C 53 % 61 % 64 % 1011,4 hPa 0,1 l/m 3,6 km/h (1 Bft) 0,47 h 0,17 h 7,3 km/h (2 Bft)
07.07.2012 14:00 25,1 C 24,3 C 2,1 UV-I 4,2 C 53 % 59 % 97 % 1011,4 hPa 0,0 l/m 2,8 km/h (1 Bft) 0,93 h 0,00 h 6,7 km/h (2 Bft)
07.07.2012 15:00 25,7 C 24,0 C 1,5 UV-I 2,4 C 52 % 59 % 68 % 1010,9 hPa 0,0 l/m 3,1 km/h (1 Bft) 0,33 h 0,00 h 6,6 km/h (2 Bft)
07.07.2012 16:00 26,6 C 25,5 C 3,2 UV-I 5,0 C 49 % 53 % 99 % 1009,8 hPa 0,0 l/m 3,6 km/h (1 Bft) 1,00 h 0,00 h 7,6 km/h (2 Bft)
07.07.2012 17:00 27,6 C 26,4 C 2,9 UV-I 4,9 C 45 % 49 % 96 % 1009,2 hPa 0,0 l/m 4,2 km/h (1 Bft) 0,90 h 0,00 h 8,9 km/h (2 Bft)
07.07.2012 18:00 27,2 C 24,8 C 0,9 UV-I 1,4 C 48 % 57 % 40 % 1009,4 hPa 0,0 l/m 3,4 km/h (1 Bft) 0,00 h 0,00 h 6,1 km/h (2 Bft)
07.07.2012 19:00 26,5 C 24,1 C 0,3 UV-I 0,2 C 49 % 59 % 7 % 1009,5 hPa 0,0 l/m 1,6 km/h (1 Bft) 0,00 h 0,00 h 4,6 km/h (1 Bft)
07.07.2012 20:00 26,1 C 23,3 C 0,1 UV-I 0,0 C 50 % 62 % 0 % 1009,6 hPa 0,0 l/m 0,1 km/h (0 Bft) 0,00 h 0,00 h 0,3 km/h (0 Bft)
07.07.2012 21:00 25,7 C 21,6 C 0,0 UV-I 0,0 C 52 % 67 % 0 % 1009,7 hPa 0,0 l/m 0,0 km/h (0 Bft) 0,00 h 0,00 h 0,0 km/h (0 Bft)
07.07.2012 22:00 25,3 C 19,8 C 0,0 UV-I 0,0 C 54 % 74 % 0 % 1009,8 hPa 0,0 l/m 0,1 km/h (0 Bft) 0,00 h 0,00 h 0,0 km/h (0 Bft)
07.07.2012 23:00 25,0 C 18,8 C 0,0 UV-I 0,0 C 55 % 77 % 0 % 1009,4 hPa 0,0 l/m 0,0 km/h (0 Bft) 0,00 h 0,00 h 0,1 km/h (0 Bft)
08.07.2012 00:00 24,7 C 17,9 C 0,0 UV-I 0,0 C 55 % 78 % 0 % 1008,8 hPa 0,0 l/m 0,1 km/h (0 Bft) 0,00 h 0,00 h 0,1 km/h (0 Bft)
08.07.2012 01:00 24,6 C 17,8 C 0,0 UV-I 0,0 C 55 % 79 % 0 % 1008,8 hPa 0,0 l/m 0,5 km/h (0 Bft) 0,00 h 0,00 h 1,7 km/h (1 Bft)
08.07.2012 02:00 24,4 C 17,9 C 0,0 UV-I 0,0 C 56 % 78 % 0 % 1008,3 hPa 0,0 l/m 0,1 km/h (0 Bft) 0,00 h 0,00 h 0,5 km/h (0 Bft)
08.07.2012 03:00 24,3 C 17,2 C 0,0 UV-I 0,0 C 56 % 80 % 0 % 1007,4 hPa 0,0 l/m 0,5 km/h (0 Bft) 0,00 h 0,00 h 1,8 km/h (1 Bft)
08.07.2012 04:00 24,1 C 16,6 C 0,0 UV-I 0,0 C 56 % 83 % 0 % 1006,6 hPa 0,0 l/m 1,1 km/h (1 Bft) 0,00 h 0,00 h 2,2 km/h (1 Bft)
08.07.2012 05:00 23,9 C 16,4 C 0,0 UV-I 0,0 C 56 % 84 % 0 % 1006,1 hPa 0,0 l/m 0,2 km/h (0 Bft) 0,00 h 0,00 h 0,9 km/h (0 Bft)
08.07.2012 06:00 23,8 C 16,8 C 0,0 UV-I 0,0 C 56 % 85 % 0 % 1006,4 hPa 0,1 l/m 1,6 km/h (1 Bft) 0,00 h 0,40 h 3,7 km/h (1 Bft)
08.07.2012 07:00 23,7 C 16,8 C 0,0 UV-I 0,0 C 59 % 88 % 0 % 1006,0 hPa 0,5 l/m 0,5 km/h (0 Bft) 0,00 h 1,00 h 1,0 km/h (0 Bft)
08.07.2012 08:00 23,6 C 16,6 C 0,0 UV-I 0,0 C 61 % 91 % 0 % 1005,7 hPa 1,0 l/m 0,4 km/h (0 Bft) 0,00 h 0,50 h 2,3 km/h (1 Bft)
08.07.2012 09:00 23,8 C 16,9 C 0,5 UV-I 0,5 C 62 % 93 % 13 % 1004,8 hPa 0,0 l/m 3,5 km/h (1 Bft) 0,00 h 0,17 h 6,6 km/h (2 Bft)
08.07.2012 10:00 23,8 C 17,0 C 0,0 UV-I 0,0 C 62 % 93 % 0 % 1004,9 hPa 3,6 l/m 6,0 km/h (2 Bft) 0,00 h 0,57 h 10,7 km/h (2 Bft)
08.07.2012 11:00 23,6 C 16,9 C 0,2 UV-I 0,0 C 63 % 95 % 0 % 1004,9 hPa 1,2 l/m 9,2 km/h (2 Bft) 0,00 h 0,40 h 14,4 km/h (3 Bft)
08.07.2012 12:00 23,4 C 17,5 C 0,5 UV-I 0,1 C 65 % 96 % 3 % 1005,3 hPa 0,2 l/m 5,9 km/h (2 Bft) 0,00 h 0,00 h 9,6 km/h (2 Bft)
08.07.2012 13:00 23,6 C 18,9 C 1,7 UV-I 2,6 C 64 % 93 % 73 % 1005,2 hPa 0,0 l/m 5,6 km/h (1 Bft) 0,43 h 0,00 h 10,8 km/h (2 Bft)
08.07.2012 14:00 24,1 C 20,2 C 1,9 UV-I 2,8 C 62 % 85 % 73 % 1005,1 hPa 0,0 l/m 6,7 km/h (2 Bft) 0,43 h 0,13 h 12,6 km/h (3 Bft)
08.07.2012 15:00 24,7 C 20,6 C 2,0 UV-I 3,2 C 61 % 84 % 79 % 1005,2 hPa 0,1 l/m 5,1 km/h (1 Bft) 0,63 h 0,03 h 8,9 km/h (2 Bft)
08.07.2012 16:00 25,4 C 20,2 C 1,7 UV-I 2,1 C 59 % 82 % 54 % 1005,0 hPa 1,6 l/m 5,7 km/h (1 Bft) 0,27 h 0,00 h 10,5 km/h (2 Bft)
08.07.2012 17:00 25,8 C 20,9 C 3,2 UV-I 3,6 C 57 % 78 % 94 % 1004,7 hPa 0,0 l/m 7,8 km/h (2 Bft) 0,87 h 0,00 h 13,4 km/h (3 Bft)
08.07.2012 18:00 26,2 C 21,0 C 1,3 UV-I 2,4 C 50 % 68 % 56 % 1004,8 hPa 0,0 l/m 10,6 km/h (2 Bft) 0,37 h 0,00 h 19,7 km/h (3 Bft)
08.07.2012 19:00 25,1 C 19,9 C 0,3 UV-I 0,2 C 50 % 70 % 5 % 1006,4 hPa 0,0 l/m 10,1 km/h (2 Bft) 0,00 h 0,07 h 19,9 km/h (4 Bft)
08.07.2012 20:00 24,2 C 18,6 C 0,0 UV-I 0,0 C 53 % 77 % 0 % 1007,2 hPa 0,0 l/m 3,7 km/h (1 Bft) 0,00 h 0,03 h 6,2 km/h (2 Bft)
08.07.2012 21:00 23,7 C 18,1 C 0,0 UV-I 0,0 C 55 % 80 % 0 % 1007,8 hPa 0,0 l/m 4,9 km/h (1 Bft) 0,00 h 0,03 h 10,9 km/h (2 Bft)
08.07.2012 22:00 23,3 C 17,8 C 0,0 UV-I 0,0 C 56 % 81 % 0 % 1008,6 hPa 0,0 l/m 5,3 km/h (1 Bft) 0,00 h 0,00 h 10,3 km/h (2 Bft)
08.07.2012 23:00 22,9 C 17,3 C 0,0 UV-I 0,0 C 57 % 84 % 0 % 1009,0 hPa 0,0 l/m 5,6 km/h (1 Bft) 0,00 h 0,00 h 9,5 km/h (2 Bft)
Min-Datum _ 02.07.12 02.07.12 02.07.12 02.07.12 02.07.12 04.07.12 02.07.12 08.07.12 - 02.07.12 - - 02.07.12
_ Min-Zeit 06:42 05:50 00:00 00:00 00:00 15:24 00:00 17:54 - 00:00 - - 00:00
Minimum _ 20,9 C 10,2 C 0,0 UV-I 0,0 C 44 % 46 % 0 % 1003,6 hPa - 0,0 km/h (0 Bft) - - 0,0 km/h (0 Bft)
Max-Datum _ 07.07.12 04.07.12 03.07.12 05.07.12 06.07.12 08.07.12 02.07.12 02.07.12 08.07.12 08.07.12 02.07.12 03.07.12 08.07.12
_ Max-Zeit 17:28 15:18 10:44 09:58 02:02 11:42 08:22 07:54 10:30 18:20 08:18 04:54 19:42
Maximum _ 27,8 C 28,9 C 4,9 UV-I 9,7 C 67 % 96 % 100 % 1020,9 hPa 3,6 l/m 14,1 km/h
SW (3 Bft)
0,03 h 0,03 h 46,2 km/h
SO (6 Bft)
Durchschnitt _ 24,3 C 20,2 C 0,8 UV-I 1,7 C 56 % 75 % 36 % 1012,0 hPa #11,6 l/m 2,0 km/h (1 Bft) #47:08 h #5:14 h 4,4 km/h (1 Bft)
© 2012 W. Hausmann